Terminal Aerodrome Forecast
Issued by NWS

Home | Current Version | Previous Version | Graphics & Text | Print | Product List | Glossary On
Versions: 1 2 3 4 5 6 7 8 9 10 11 12 13 14 15 16 17 18 19 20 21 22
000
FTUS43 KICT 291137
TAFHUT
TAF
KHUT 291137Z 2912/3012 VRB03KT 6SM BR SCT005 SCT015
      TEMPO 2912/2915 BKN005 OVC015
     FM291600 21007KT P6SM SCT030 BKN150
     FM292100 30007KT P6SM VCTS SCT040CB BKN080
     FM300200 34008KT P6SM BKN030=

USA.gov is the U.S. government's official web portal to all federal, state and local government web resources and services.